Time;durP1;ratioP1;P1;durP2;ratioP2;P2;SDS_P1;SDS_P2;PMS_P1;PMS_P2;Temp;Humidity;BMP_temperature;BMP_pressure;BME280_temperature;BME280_humidity;BME280_pressure;Samples;Min_cycle;Max_cycle;Signal;HPM_P1;HPM_P2
2023/05/22 00:01:48;;;;;;;9.45;5.30;;;21.30;62.40;;;;;;5019580;28;20389;-77
2023/05/22 00:04:20;;;;;;;12.15;5.40;;;21.30;61.50;;;;;;5053868;28;20078;-75
2023/05/22 00:06:46;;;;;;;6.97;5.22;;;21.20;61.70;;;;;;5053578;28;20475;-76
2023/05/22 00:09:12;;;;;;;6.40;5.22;;;21.20;62.00;;;;;;5053542;28;20108;-75
2023/05/22 00:11:38;;;;;;;12.90;5.57;;;21.20;61.80;;;;;;5053634;28;20099;-76
2023/05/22 00:14:04;;;;;;;10.48;5.50;;;21.20;62.40;;;;;;5053708;28;20473;-75
2023/05/22 00:16:30;;;;;;;10.23;5.45;;;21.20;62.10;;;;;;5053532;28;20036;-75
2023/05/22 00:18:56;;;;;;;9.10;5.35;;;21.20;61.80;;;;;;5053296;28;20041;-77
2023/05/22 00:21:23;;;;;;;11.15;5.65;;;21.30;61.90;;;;;;5053213;28;20384;-74
2023/05/22 00:23:49;;;;;;;6.93;4.93;;;21.30;61.70;;;;;;5053088;28;20017;-75
2023/05/22 00:26:15;;;;;;;11.30;5.25;;;21.30;61.60;;;;;;5053206;28;20052;-78
2023/05/22 00:28:41;;;;;;;7.10;5.25;;;21.30;62.10;;;;;;5035405;28;20404;-75
2023/05/22 00:31:08;;;;;;;10.75;5.55;;;21.30;63.00;;;;;;5053318;28;20098;-74
2023/05/22 00:33:33;;;;;;;8.70;4.95;;;21.30;62.00;;;;;;5053002;28;20052;-78
2023/05/22 00:36:00;;;;;;;7.63;5.07;;;21.30;62.10;;;;;;5053208;28;20024;-76
2023/05/22 00:38:31;;;;;;;11.38;5.70;;;21.30;61.60;;;;;;5053010;28;20060;-75
2023/05/22 00:41:00;;;;;;;10.60;5.47;;;21.30;61.10;;;;;;5052567;28;20071;-75
2023/05/22 00:43:26;;;;;;;11.43;6.03;;;21.20;61.50;;;;;;5052740;28;20740;-76
2023/05/22 00:45:53;;;;;;;10.52;6.57;;;21.30;62.50;;;;;;5052333;28;20040;-75
2023/05/22 00:48:23;;;;;;;8.35;5.50;;;21.20;62.70;;;;;;5052861;28;20035;-75
2023/05/22 00:50:50;;;;;;;11.00;5.53;;;21.20;63.60;;;;;;5052798;28;20056;-76
2023/05/22 00:53:18;;;;;;;6.32;5.43;;;21.20;62.50;;;;;;5052821;28;20025;-75
2023/05/22 00:55:44;;;;;;;11.07;5.63;;;21.20;62.50;;;;;;5052757;28;20071;-76
2023/05/22 00:58:16;;;;;;;13.07;6.35;;;21.20;62.00;;;;;;5051469;28;20404;-77
2023/05/22 01:00:42;;;;;;;12.15;5.20;;;21.30;61.50;;;;;;5050100;28;20473;-77
2023/05/22 01:03:08;;;;;;;7.55;5.30;;;21.30;61.50;;;;;;5049922;28;20062;-75
2023/05/22 01:05:36;;;;;;;9.93;6.03;;;21.30;62.60;;;;;;5051652;28;20028;-75
2023/05/22 01:08:03;;;;;;;7.00;5.60;;;21.20;63.20;;;;;;5052524;28;20074;-74
2023/05/22 01:10:29;;;;;;;8.45;5.10;;;21.10;63.20;;;;;;5052658;28;20025;-74
2023/05/22 01:13:18;;;;;;;7.45;5.25;;;21.00;63.60;;;;;;5052445;28;20492;-75
2023/05/22 01:16:23;;;;;;;9.05;5.50;;;20.90;64.10;;;;;;5052591;28;20024;-76
2023/05/22 01:19:08;;;;;;;14.43;5.97;;;20.80;64.30;;;;;;5037878;28;20028;-75
2023/05/22 01:21:52;;;;;;;8.93;5.82;;;20.80;64.60;;;;;;5052293;28;20110;-76
2023/05/22 01:24:50;;;;;;;7.70;5.93;;;20.70;65.10;;;;;;5052426;28;20108;-77
2023/05/22 01:27:34;;;;;;;8.25;5.57;;;20.60;64.80;;;;;;5052344;28;20029;-76
2023/05/22 01:30:34;;;;;;;7.07;6.38;;;20.60;65.30;;;;;;5052550;28;20032;-76
2023/05/22 01:33:02;;;;;;;12.73;6.18;;;20.50;66.70;;;;;;5052494;28;20033;-77
2023/05/22 01:35:28;;;;;;;11.00;5.95;;;20.50;67.10;;;;;;5052336;28;20024;-74
2023/05/22 01:37:56;;;;;;;8.40;5.85;;;20.40;67.00;;;;;;5034477;28;20381;-75
2023/05/22 01:40:22;;;;;;;8.88;6.20;;;20.40;66.70;;;;;;5052419;28;20029;-76
2023/05/22 01:42:48;;;;;;;9.52;5.60;;;20.40;66.50;;;;;;5052259;28;20022;-76
2023/05/22 01:45:14;;;;;;;9.27;6.20;;;20.30;66.80;;;;;;5052330;28;20382;-76
2023/05/22 01:47:40;;;;;;;9.82;5.75;;;20.30;67.10;;;;;;5052600;28;20032;-77
2023/05/22 01:50:06;;;;;;;7.85;5.63;;;20.30;68.00;;;;;;5052412;28;20119;-75
2023/05/22 01:52:59;;;;;;;7.13;5.90;;;20.20;68.20;;;;;;5052398;28;20070;-76
2023/05/22 01:55:39;;;;;;;12.57;5.97;;;20.20;67.80;;;;;;5052256;28;20473;-74
2023/05/22 01:58:07;;;;;;;9.05;5.70;;;20.20;67.00;;;;;;5055231;28;20374;-76
2023/05/22 02:00:36;;;;;;;12.20;6.05;;;20.20;67.40;;;;;;5056279;28;20472;-75
2023/05/22 02:03:11;;;;;;;10.43;5.65;;;20.20;67.30;;;;;;5055743;28;20021;-77
2023/05/22 02:05:38;;;;;;;7.22;5.70;;;20.20;67.20;;;;;;5055876;28;20055;-74
2023/05/22 02:08:05;;;;;;;7.47;5.63;;;20.20;67.00;;;;;;5055419;28;20081;-76
2023/05/22 02:10:32;;;;;;;9.13;5.97;;;20.20;67.20;;;;;;5055658;28;20478;-76
2023/05/22 02:12:59;;;;;;;6.70;5.57;;;20.20;67.20;;;;;;5055560;28;20495;-76
2023/05/22 02:15:25;;;;;;;9.90;5.82;;;20.20;67.20;;;;;;5055697;28;20025;-74
2023/05/22 02:17:52;;;;;;;11.95;6.15;;;20.20;67.00;;;;;;5055661;28;20090;-76
2023/05/22 02:20:18;;;;;;;9.43;6.22;;;20.20;66.90;;;;;;5055618;28;20511;-75
2023/05/22 02:22:45;;;;;;;10.05;6.30;;;20.20;67.10;;;;;;5055668;28;20025;-75
2023/05/22 02:25:16;;;;;;;9.18;6.13;;;20.20;67.50;;;;;;5055555;28;20031;-76
2023/05/22 02:27:46;;;;;;;9.55;5.45;;;20.20;67.60;;;;;;5055779;28;20147;-74
2023/05/22 02:30:13;;;;;;;14.70;6.78;;;20.20;67.00;;;;;;5037823;28;20021;-77
2023/05/22 02:32:39;;;;;;;17.50;6.13;;;20.10;67.70;;;;;;5055435;28;20028;-76
2023/05/22 02:35:06;;;;;;;11.52;6.18;;;20.00;68.20;;;;;;5055019;28;20094;-75
2023/05/22 02:37:31;;;;;;;9.20;5.63;;;20.00;68.40;;;;;;5055394;28;20013;-76
2023/05/22 02:39:57;;;;;;;8.88;6.22;;;19.90;68.90;;;;;;5055479;28;20111;-76
2023/05/22 02:42:23;;;;;;;10.57;5.95;;;19.90;68.80;;;;;;5055225;28;20354;-75
2023/05/22 02:44:49;;;;;;;8.82;6.55;;;19.90;68.70;;;;;;5055212;28;20025;-76
2023/05/22 02:47:15;;;;;;;13.13;6.55;;;19.90;69.40;;;;;;5055184;28;20079;-74
2023/05/22 02:49:41;;;;;;;12.63;6.38;;;19.80;69.20;;;;;;5037239;28;20033;-75
2023/05/22 02:52:07;;;;;;;12.10;6.35;;;19.80;69.30;;;;;;5055024;28;20071;-75
2023/05/22 02:54:32;;;;;;;12.68;6.78;;;19.80;69.50;;;;;;5055122;28;20034;-76
2023/05/22 02:56:58;;;;;;;14.05;6.50;;;19.70;69.40;;;;;;5055002;28;20035;-74
2023/05/22 02:59:24;;;;;;;13.63;6.47;;;19.70;69.70;;;;;;5054838;28;20033;-76
2023/05/22 03:01:50;;;;;;;12.98;6.57;;;19.70;69.70;;;;;;5055022;28;20025;-76
2023/05/22 03:04:16;;;;;;;9.05;6.05;;;19.60;70.00;;;;;;5054742;28;20020;-75
2023/05/22 03:06:45;;;;;;;8.98;5.82;;;19.60;70.00;;;;;;5054941;28;20055;-75
2023/05/22 03:09:11;;;;;;;10.63;5.97;;;19.50;70.00;;;;;;5054006;28;20027;-76
2023/05/22 03:11:36;;;;;;;10.65;6.75;;;19.60;70.10;;;;;;5054599;28;20037;-75
2023/05/22 03:14:02;;;;;;;9.30;6.40;;;19.50;70.20;;;;;;5054737;28;20029;-76
2023/05/22 03:16:28;;;;;;;15.40;6.40;;;19.50;69.40;;;;;;5054569;28;20031;-75
2023/05/22 03:19:10;;;;;;;13.57;6.47;;;19.50;69.60;;;;;;5036626;28;20116;-76
2023/05/22 03:21:37;;;;;;;13.77;6.85;;;19.50;70.00;;;;;;5054300;28;20104;-75
2023/05/22 03:24:03;;;;;;;14.82;6.47;;;19.40;70.40;;;;;;5054575;28;20021;-76
2023/05/22 03:26:29;;;;;;;16.70;6.30;;;19.40;71.00;;;;;;5054472;28;20028;-75
2023/05/22 03:28:56;;;;;;;11.98;7.32;;;19.30;70.70;;;;;;5036622;28;20116;-77
2023/05/22 03:31:23;;;;;;;11.43;6.43;;;19.20;71.00;;;;;;5054290;28;20036;-76
2023/05/22 03:33:49;;;;;;;11.52;6.93;;;19.20;71.70;;;;;;5054233;28;20045;-76
2023/05/22 03:36:15;;;;;;;14.93;6.95;;;19.10;72.60;;;;;;5054257;28;20051;-76
2023/05/22 03:38:41;;;;;;;10.00;6.00;;;19.10;72.40;;;;;;5054037;28;20508;-76
2023/05/22 03:41:06;;;;;;;15.32;6.80;;;19.00;72.90;;;;;;5054213;28;20025;-76
2023/05/22 03:43:34;;;;;;;9.90;6.40;;;19.00;72.50;;;;;;5036115;28;20025;-75
2023/05/22 03:46:00;;;;;;;13.88;7.03;;;19.00;72.70;;;;;;5054195;28;20544;-77
2023/05/22 03:48:25;;;;;;;17.60;7.57;;;19.00;73.10;;;;;;5053990;28;20103;-76
2023/05/22 03:50:51;;;;;;;11.40;6.53;;;19.00;73.40;;;;;;5054115;28;20025;-77
2023/05/22 03:53:17;;;;;;;9.45;6.03;;;18.90;73.50;;;;;;5054308;28;20120;-76
2023/05/22 03:55:43;;;;;;;16.23;7.03;;;18.90;73.60;;;;;;5054040;28;20058;-76
2023/05/22 03:58:08;;;;;;;15.88;7.30;;;18.90;73.50;;;;;;5053729;28;20051;-76
2023/05/22 04:00:34;;;;;;;14.48;7.47;;;18.90;73.40;;;;;;5053489;28;20017;-77
2023/05/22 04:03:00;;;;;;;14.98;6.70;;;18.90;73.90;;;;;;5053722;28;20021;-76
2023/05/22 04:05:26;;;;;;;16.00;7.18;;;18.90;73.50;;;;;;5053704;28;20025;-77
2023/05/22 04:07:52;;;;;;;9.65;6.72;;;18.90;73.60;;;;;;5053425;28;20021;-75
2023/05/22 04:10:21;;;;;;;16.83;7.82;;;18.90;73.60;;;;;;5035707;28;20174;-76
2023/05/22 04:12:46;;;;;;;28.98;7.97;;;18.80;74.20;;;;;;5053634;28;20489;-75
2023/05/22 04:15:12;;;;;;;140.93;14.48;;;18.80;74.90;;;;;;5053345;28;20025;-75
2023/05/22 04:17:40;;;;;;;73.22;11.20;;;18.80;75.00;;;;;;5053080;28;20025;-75
2023/05/22 04:20:07;;;;;;;66.35;8.50;;;18.80;74.70;;;;;;5052898;28;20040;-75
2023/05/22 04:22:32;;;;;;;52.42;8.88;;;18.90;75.30;;;;;;5053577;28;20500;-76
2023/05/22 04:24:58;;;;;;;41.33;8.60;;;18.90;75.40;;;;;;5053569;28;20064;-75
2023/05/22 04:27:25;;;;;;;62.10;9.40;;;19.00;75.60;;;;;;5053269;28;20059;-74
2023/05/22 04:29:50;;;;;;;53.80;8.52;;;18.90;76.30;;;;;;5053216;28;20029;-75
2023/05/22 04:32:20;;;;;;;29.17;8.02;;;19.00;76.60;;;;;;5053429;28;20129;-76
2023/05/22 04:34:48;;;;;;;21.55;7.57;;;19.00;76.30;;;;;;5053106;28;20053;-75
2023/05/22 04:37:14;;;;;;;25.05;7.40;;;19.10;75.30;;;;;;5053055;28;20079;-75
2023/05/22 04:39:40;;;;;;;21.90;8.02;;;19.10;76.00;;;;;;5053029;28;20040;-76
2023/05/22 04:42:06;;;;;;;31.65;8.52;;;19.10;76.10;;;;;;5053084;28;20147;-76
2023/05/22 04:44:33;;;;;;;29.52;7.90;;;19.10;75.80;;;;;;5053124;28;20029;-77
2023/05/22 04:47:02;;;;;;;21.02;7.45;;;19.20;75.80;;;;;;5053133;28;20021;-78
2023/05/22 04:49:28;;;;;;;20.63;7.45;;;19.20;75.80;;;;;;5035086;28;20053;-77
2023/05/22 04:51:56;;;;;;;16.88;7.32;;;19.20;76.40;;;;;;5053140;28;20071;-77
2023/05/22 04:54:23;;;;;;;20.27;7.25;;;19.20;77.00;;;;;;5052962;28;20068;-77
2023/05/22 04:56:50;;;;;;;21.10;6.82;;;19.20;78.10;;;;;;5052632;28;20470;-77
2023/05/22 04:59:18;;;;;;;16.83;7.70;;;19.20;78.70;;;;;;5034918;28;20037;-77
2023/05/22 05:01:44;;;;;;;23.98;7.78;;;19.20;79.30;;;;;;5052531;28;20070;-78
2023/05/22 05:04:10;;;;;;;22.60;7.13;;;19.20;79.00;;;;;;5052442;28;20473;-78
2023/05/22 05:06:36;;;;;;;17.75;7.03;;;19.20;79.40;;;;;;5052735;28;20533;-77
2023/05/22 05:09:08;;;;;;;18.10;7.85;;;19.30;79.30;;;;;;5054001;28;20025;-77
2023/05/22 05:11:34;;;;;;;15.68;6.68;;;19.30;79.50;;;;;;5034812;28;20393;-77
2023/05/22 05:14:00;;;;;;;12.68;6.65;;;19.40;79.20;;;;;;5052997;28;20083;-77
2023/05/22 05:16:26;;;;;;;21.23;7.28;;;19.50;79.20;;;;;;5052746;28;20033;-77
2023/05/22 05:18:52;;;;;;;14.35;7.05;;;19.50;78.80;;;;;;5052680;28;20040;-77
2023/05/22 05:21:21;;;;;;;14.02;7.15;;;19.50;78.80;;;;;;5052242;28;20017;-77
2023/05/22 05:23:47;;;;;;;36.63;7.60;;;19.60;79.30;;;;;;5052093;28;20033;-78
2023/05/22 05:26:13;;;;;;;24.35;8.02;;;19.60;78.60;;;;;;5052348;28;20051;-77
2023/05/22 05:28:40;;;;;;;23.38;8.00;;;19.70;78.90;;;;;;5052780;28;20028;-78
2023/05/22 05:31:06;;;;;;;23.77;7.57;;;19.70;79.60;;;;;;5054096;28;20025;-78
2023/05/22 05:33:32;;;;;;;36.33;8.57;;;19.80;80.10;;;;;;5056241;28;20443;-78
2023/05/22 05:35:58;;;;;;;22.70;7.97;;;19.80;80.30;;;;;;5056388;28;20078;-76
2023/05/22 05:38:24;;;;;;;17.17;6.60;;;19.80;80.40;;;;;;5056303;28;20124;-76
2023/05/22 05:40:50;;;;;;;12.30;6.50;;;19.90;80.60;;;;;;5056193;28;20060;-78
2023/05/22 05:43:16;;;;;;;11.68;6.95;;;20.00;80.60;;;;;;5055754;28;20473;-77
2023/05/22 05:45:42;;;;;;;12.63;6.40;;;20.00;80.40;;;;;;5056119;28;20025;-77
2023/05/22 05:48:08;;;;;;;45.42;24.60;;;20.00;79.80;;;;;;5056333;28;20112;-78
2023/05/22 05:50:34;;;;;;;30.63;19.13;;;20.10;79.90;;;;;;5056130;28;20057;-75
2023/05/22 05:53:00;;;;;;;14.70;7.40;;;20.20;79.30;;;;;;5056109;28;20021;-76
2023/05/22 05:55:26;;;;;;;12.05;6.43;;;20.20;78.50;;;;;;5055979;28;20461;-78
2023/05/22 05:57:53;;;;;;;12.43;6.57;;;20.30;78.40;;;;;;5055437;28;20029;-77
2023/05/22 06:00:19;;;;;;;10.68;6.45;;;20.40;78.00;;;;;;5055678;28;20017;-78
2023/05/22 06:02:45;;;;;;;12.75;6.88;;;20.50;77.60;;;;;;5056045;28;20028;-78
2023/05/22 06:05:12;;;;;;;14.88;6.50;;;20.60;77.40;;;;;;5055905;28;20126;-78
2023/05/22 06:07:38;;;;;;;12.02;6.38;;;20.60;77.90;;;;;;5056015;28;20119;-77
2023/05/22 06:10:08;;;;;;;15.32;6.40;;;20.70;77.70;;;;;;5055776;28;20087;-78
2023/05/22 06:12:33;;;;;;;9.68;6.32;;;20.70;78.00;;;;;;5038225;28;20392;-78
2023/05/22 06:14:59;;;;;;;9.43;5.97;;;20.70;78.20;;;;;;5055449;28;20027;-77
2023/05/22 06:17:25;;;;;;;8.50;6.53;;;20.70;78.30;;;;;;5055536;28;20063;-78
2023/05/22 06:19:51;;;;;;;11.32;6.03;;;20.80;78.50;;;;;;5055494;28;20029;-79
2023/05/22 06:22:16;;;;;;;13.63;6.53;;;20.80;78.40;;;;;;5055703;28;20021;-78
2023/05/22 06:24:42;;;;;;;10.98;6.78;;;20.80;78.20;;;;;;5055784;28;20025;-79
2023/05/22 06:27:08;;;;;;;11.02;6.18;;;20.80;77.90;;;;;;5055650;28;20025;-78
2023/05/22 06:29:33;;;;;;;13.25;6.40;;;20.80;78.10;;;;;;5055507;28;20021;-78
2023/05/22 06:31:59;;;;;;;9.55;5.75;;;20.90;78.20;;;;;;5055184;28;20018;-78
2023/05/22 06:34:26;;;;;;;12.23;5.72;;;20.90;77.20;;;;;;5055200;28;20154;-78
2023/05/22 06:36:52;;;;;;;15.52;6.18;;;21.00;76.90;;;;;;5055545;28;20021;-78
2023/05/22 06:39:18;;;;;;;12.73;6.60;;;21.10;76.40;;;;;;5055475;28;20032;-77
2023/05/22 06:41:44;;;;;;;10.13;5.97;;;21.10;75.80;;;;;;5055449;28;20021;-78
2023/05/22 06:44:11;;;;;;;11.75;5.50;;;21.20;75.20;;;;;;5054802;28;20419;-78
2023/05/22 06:46:36;;;;;;;10.90;5.82;;;21.30;74.90;;;;;;5055295;28;20108;-79
2023/05/22 06:49:03;;;;;;;9.68;5.78;;;21.40;74.70;;;;;;5055291;28;20457;-79
2023/05/22 06:51:28;;;;;;;9.75;5.72;;;21.50;74.20;;;;;;5055273;28;20025;-78
2023/05/22 06:53:55;;;;;;;7.85;5.28;;;21.60;73.40;;;;;;5055268;28;20048;-79
2023/05/22 06:56:21;;;;;;;11.48;5.93;;;21.70;73.00;;;;;;5055082;28;20020;-78
2023/05/22 06:58:47;;;;;;;12.13;6.30;;;21.70;72.90;;;;;;5054929;28;20044;-78
2023/05/22 07:01:13;;;;;;;10.18;6.18;;;21.80;71.80;;;;;;5054908;28;20104;-78
2023/05/22 07:03:38;;;;;;;14.05;6.50;;;21.80;71.40;;;;;;5054954;28;20029;-79
2023/05/22 07:06:04;;;;;;;9.40;5.63;;;21.90;71.30;;;;;;5054985;28;20017;-78
2023/05/22 07:08:30;;;;;;;11.68;5.85;;;21.90;71.40;;;;;;5054985;28;20024;-79
2023/05/22 07:10:56;;;;;;;10.15;5.90;;;22.00;71.40;;;;;;5054876;28;20029;-79
2023/05/22 07:13:23;;;;;;;15.25;5.65;;;22.00;70.70;;;;;;5054606;28;20013;-77
2023/05/22 07:15:49;;;;;;;18.50;5.78;;;22.10;70.00;;;;;;5054699;28;20025;-79
2023/05/22 07:18:15;;;;;;;9.20;5.90;;;22.20;70.40;;;;;;5054799;28;20435;-78
2023/05/22 07:20:41;;;;;;;8.27;5.55;;;22.20;71.00;;;;;;5054534;28;20020;-77
2023/05/22 07:23:08;;;;;;;8.38;6.10;;;22.30;71.20;;;;;;5054702;28;20017;-79
2023/05/22 07:25:33;;;;;;;10.05;5.57;;;22.40;71.10;;;;;;5054584;28;20504;-79
2023/05/22 07:28:00;;;;;;;8.55;5.47;;;22.50;70.10;;;;;;5054886;28;20029;-79
2023/05/22 07:30:26;;;;;;;12.32;5.97;;;22.50;69.30;;;;;;5054337;28;20404;-78
2023/05/22 07:32:52;;;;;;;7.65;5.78;;;22.60;68.30;;;;;;5062085;22;20052;-79
2023/05/22 07:35:18;;;;;;;10.82;6.13;;;22.60;67.40;;;;;;5053614;28;20017;-79
2023/05/22 07:37:43;;;;;;;11.50;5.63;;;22.70;67.30;;;;;;5036422;28;20025;-78
2023/05/22 07:40:10;;;;;;;11.70;5.45;;;22.80;67.50;;;;;;5054249;28;20507;-79
2023/05/22 07:42:37;;;;;;;11.23;6.93;;;22.80;67.10;;;;;;5054113;28;20033;-79
2023/05/22 07:45:03;;;;;;;11.70;5.72;;;22.90;66.70;;;;;;5054797;28;20108;-78
2023/05/22 07:47:28;;;;;;;8.43;6.30;;;23.00;65.90;;;;;;5053661;28;20480;-78
2023/05/22 07:49:54;;;;;;;9.90;5.63;;;23.00;65.60;;;;;;5035606;28;20017;-78
2023/05/22 07:52:20;;;;;;;9.55;5.60;;;23.10;65.70;;;;;;5051941;28;20102;-77
2023/05/22 07:54:46;;;;;;;8.35;5.40;;;23.20;65.80;;;;;;5050893;28;20028;-78
2023/05/22 07:57:12;;;;;;;10.05;5.72;;;23.20;64.70;;;;;;5033450;28;20133;-77
2023/05/22 07:59:38;;;;;;;11.85;5.57;;;23.30;64.70;;;;;;5031938;28;20033;-77
2023/05/22 08:02:04;;;;;;;8.85;5.88;;;23.40;65.40;;;;;;5041656;28;20028;-78
2023/05/22 08:04:29;;;;;;;13.45;5.90;;;23.40;64.50;;;;;;5052986;28;20028;-77
2023/05/22 08:06:56;;;;;;;9.32;5.45;;;23.50;63.90;;;;;;5053169;28;20021;-78
2023/05/22 08:09:22;;;;;;;13.55;5.88;;;23.60;63.80;;;;;;5052981;28;20082;-75
2023/05/22 08:11:48;;;;;;;8.52;5.30;;;23.60;62.40;;;;;;5053159;28;20021;-75
2023/05/22 08:14:13;;;;;;;10.10;6.80;;;23.70;62.00;;;;;;5053195;28;20036;-75
2023/05/22 08:16:39;;;;;;;9.10;5.30;;;23.80;61.80;;;;;;5052843;28;20029;-74
2023/05/22 08:19:06;;;;;;;9.48;5.43;;;23.80;61.50;;;;;;5052705;28;20029;-75
2023/05/22 08:21:33;;;;;;;11.00;5.28;;;23.80;61.40;;;;;;5052913;28;20110;-75
2023/05/22 08:23:59;;;;;;;8.23;5.20;;;23.90;62.60;;;;;;5052786;28;20017;-75
2023/05/22 08:26:25;;;;;;;7.15;5.32;;;23.90;61.10;;;;;;5052925;28;20108;-75
2023/05/22 08:28:51;;;;;;;9.32;5.60;;;24.00;60.70;;;;;;5052850;28;20053;-74
2023/05/22 08:31:17;;;;;;;9.23;5.05;;;24.00;60.60;;;;;;5052483;28;20472;-74
2023/05/22 08:33:42;;;;;;;6.78;5.25;;;24.10;60.70;;;;;;5052139;28;20059;-74
2023/05/22 08:36:08;;;;;;;10.98;5.82;;;24.10;61.30;;;;;;5034875;28;20021;-74
2023/05/22 08:38:34;;;;;;;9.25;5.28;;;24.10;61.20;;;;;;5052560;28;20041;-75
2023/05/22 08:41:00;;;;;;;8.45;5.60;;;24.20;60.80;;;;;;5052464;28;20021;-75
2023/05/22 08:43:27;;;;;;;7.97;5.70;;;24.30;61.00;;;;;;5052405;28;20052;-75
2023/05/22 08:46:04;;;;;;;9.43;5.38;;;24.30;59.60;;;;;;5052579;28;20479;-75
2023/05/22 08:48:31;;;;;;;6.75;5.30;;;24.40;59.00;;;;;;5052739;28;20105;-76
2023/05/22 08:51:01;;;;;;;8.32;5.30;;;24.50;59.10;;;;;;5052929;28;20028;-76
2023/05/22 08:53:28;;;;;;;7.15;4.80;;;24.50;59.10;;;;;;5052808;28;20103;-76
2023/05/22 08:55:54;;;;;;;10.05;5.20;;;24.60;58.90;;;;;;5052802;28;20374;-75
2023/05/22 08:58:23;;;;;;;12.30;5.15;;;24.70;57.90;;;;;;5052751;28;20039;-75
2023/05/22 09:00:49;;;;;;;9.20;5.28;;;24.80;57.50;;;;;;5052807;28;20022;-75
2023/05/22 09:03:15;;;;;;;7.38;5.28;;;24.80;57.10;;;;;;5053081;28;20362;-75
2023/05/22 09:05:41;;;;;;;8.05;5.25;;;24.90;57.60;;;;;;5052616;28;20430;-75
2023/05/22 09:08:07;;;;;;;8.73;5.78;;;24.90;58.20;;;;;;5052330;28;20447;-75
2023/05/22 09:10:33;;;;;;;14.25;5.40;;;25.00;58.70;;;;;;5052347;28;20059;-75
2023/05/22 09:13:04;;;;;;;9.13;5.30;;;25.00;58.40;;;;;;5052650;28;20064;-75
2023/05/22 09:15:33;;;;;;;10.95;5.45;;;25.10;58.10;;;;;;5052828;28;20079;-76
2023/05/22 09:18:00;;;;;;;10.95;5.28;;;25.20;58.30;;;;;;5052720;28;20025;-75
2023/05/22 09:20:26;;;;;;;14.88;5.00;;;25.30;57.70;;;;;;5052718;28;20025;-75
2023/05/22 09:22:51;;;;;;;8.20;5.40;;;25.30;55.90;;;;;;5052714;28;20048;-75
2023/05/22 09:25:18;;;;;;;8.35;5.13;;;25.40;55.60;;;;;;5052774;28;20472;-75
2023/05/22 09:27:45;;;;;;;11.40;4.72;;;25.50;56.30;;;;;;5034354;28;20378;-76
2023/05/22 09:30:16;;;;;;;10.93;5.55;;;25.50;55.60;;;;;;5052525;28;20033;-76
2023/05/22 09:32:42;;;;;;;8.50;5.18;;;25.60;56.10;;;;;;5052560;28;20071;-76
2023/05/22 09:35:08;;;;;;;9.20;4.75;;;25.70;55.50;;;;;;5052746;28;20503;-76
2023/05/22 09:37:35;;;;;;;11.68;4.85;;;25.70;56.10;;;;;;5052642;28;20080;-76
2023/05/22 09:40:05;;;;;;;8.50;5.18;;;25.70;55.40;;;;;;5052338;28;20029;-75
2023/05/22 09:42:34;;;;;;;9.55;4.32;;;25.80;55.50;;;;;;5052379;28;20027;-76
2023/05/22 09:45:04;;;;;;;9.45;4.38;;;25.90;52.70;;;;;;5052509;28;20059;-75
2023/05/22 09:47:30;;;;;;;17.60;5.05;;;25.90;54.00;;;;;;5052488;28;20029;-76
2023/05/22 09:49:57;;;;;;;14.65;4.55;;;25.90;53.10;;;;;;5052154;28;20029;-77
2023/05/22 09:52:23;;;;;;;6.00;4.35;;;26.00;53.60;;;;;;5034519;28;20468;-76
2023/05/22 09:54:54;;;;;;;8.73;5.07;;;26.00;54.40;;;;;;5052117;28;20492;-76
2023/05/22 09:57:21;;;;;;;8.85;4.35;;;26.10;51.90;;;;;;5052196;28;20013;-76
2023/05/22 09:59:53;;;;;;;6.45;4.70;;;26.10;52.20;;;;;;5034426;28;20120;-76
2023/05/22 10:02:23;;;;;;;15.07;3.90;;;26.10;53.10;;;;;;5052075;28;20358;-75
2023/05/22 10:04:50;;;;;;;10.47;5.40;;;26.10;52.20;;;;;;5052244;28;20029;-75
2023/05/22 10:07:21;;;;;;;11.65;4.25;;;26.20;52.60;;;;;;5052188;28;20104;-75
2023/05/22 10:09:57;;;;;;;19.25;8.90;;;26.20;49.90;;;;;;5052285;28;20540;-78
2023/05/22 10:12:24;;;;;;;11.93;4.35;;;26.30;52.70;;;;;;5052311;28;20036;-78
2023/05/22 10:14:50;;;;;;;5.57;4.05;;;26.40;53.10;;;;;;5034111;28;20584;-78
2023/05/22 10:17:17;;;;;;;11.35;4.90;;;26.50;51.10;;;;;;5052298;28;20029;-77
2023/05/22 10:19:43;;;;;;;5.35;3.97;;;26.50;50.10;;;;;;5037756;28;20045;-76
2023/05/22 10:22:13;;;;;;;15.30;6.03;;;26.50;49.30;;;;;;5055771;28;20110;-77
2023/05/22 10:24:40;;;;;;;7.07;4.00;;;26.60;51.30;;;;;;5055323;28;20033;-75
2023/05/22 10:27:05;;;;;;;10.25;4.32;;;26.70;51.70;;;;;;5055457;28;20088;-75
2023/05/22 10:29:39;;;;;;;11.52;4.22;;;26.70;51.10;;;;;;5055472;28;20029;-75
2023/05/22 10:32:05;;;;;;;10.57;4.20;;;26.80;50.80;;;;;;5055349;28;20028;-75
2023/05/22 10:34:52;;;;;;;6.53;4.15;;;26.80;51.00;;;;;;5054753;28;20044;-75
2023/05/22 10:37:41;;;;;;;5.43;3.97;;;26.90;50.20;;;;;;5055309;28;20029;-76
2023/05/22 10:40:12;;;;;;;10.32;4.28;;;27.00;49.80;;;;;;5054989;28;20033;-76
2023/05/22 10:42:38;;;;;;;13.07;4.20;;;27.10;49.60;;;;;;5055150;28;20025;-76
2023/05/22 10:45:07;;;;;;;14.95;4.70;;;27.10;49.80;;;;;;5054934;28;20358;-76
2023/05/22 10:47:33;;;;;;;8.60;3.97;;;27.20;49.90;;;;;;5054945;28;20037;-76
2023/05/22 10:50:09;;;;;;;5.35;3.80;;;27.30;49.00;;;;;;5055081;28;20029;-76
2023/05/22 10:52:36;;;;;;;5.18;3.53;;;27.30;49.50;;;;;;5055027;28;20029;-75
2023/05/22 10:55:07;;;;;;;9.43;3.58;;;27.40;49.60;;;;;;5054320;28;20040;-75
2023/05/22 10:57:35;;;;;;;9.65;4.40;;;27.50;48.70;;;;;;5052080;28;20021;-75
2023/05/22 11:00:14;;;;;;;15.05;4.47;;;27.50;48.90;;;;;;5053538;28;20037;-76
2023/05/22 11:02:44;;;;;;;9.90;4.07;;;27.50;48.10;;;;;;5054362;28;20028;-75
2023/05/22 11:05:15;;;;;;;11.57;4.03;;;27.50;48.60;;;;;;5054394;28;20507;-75
2023/05/22 11:07:41;;;;;;;6.03;4.25;;;27.60;47.50;;;;;;5054174;28;20485;-75
2023/05/22 11:10:07;;;;;;;9.13;3.90;;;27.60;48.00;;;;;;5054585;28;20029;-75
2023/05/22 11:12:33;;;;;;;7.28;3.95;;;27.60;47.20;;;;;;5054743;28;20104;-75
2023/05/22 11:15:01;;;;;;;10.48;4.00;;;27.60;46.90;;;;;;5054346;28;20025;-75
2023/05/22 11:17:28;;;;;;;8.60;3.85;;;27.70;46.80;;;;;;5054397;28;20021;-75
2023/05/22 11:19:58;;;;;;;6.55;3.63;;;27.70;46.60;;;;;;5054124;28;20392;-75
2023/05/22 11:22:49;;;;;;;5.15;3.97;;;27.70;47.60;;;;;;5053976;28;20045;-75
2023/05/22 11:25:16;;;;;;;10.13;3.80;;;27.70;47.80;;;;;;5036200;28;20108;-75
2023/05/22 11:27:43;;;;;;;10.50;4.07;;;27.70;47.00;;;;;;5054429;28;20025;-75
2023/05/22 11:30:10;;;;;;;7.40;3.70;;;27.80;46.10;;;;;;5053360;28;20082;-75
2023/05/22 11:32:37;;;;;;;6.35;3.85;;;27.80;46.40;;;;;;5053490;28;20035;-75
2023/05/22 11:35:09;;;;;;;14.43;3.72;;;27.90;46.70;;;;;;5054076;28;20040;-75
2023/05/22 11:37:39;;;;;;;5.68;4.00;;;27.90;45.30;;;;;;5054343;28;20036;-75
2023/05/22 11:40:06;;;;;;;8.68;3.72;;;27.90;46.50;;;;;;5054084;28;20124;-75
2023/05/22 11:42:32;;;;;;;10.43;3.72;;;27.90;44.70;;;;;;5054017;28;20052;-76
2023/05/22 11:44:58;;;;;;;7.00;3.40;;;28.00;45.10;;;;;;5053839;28;20603;-75
2023/05/22 11:47:25;;;;;;;5.22;3.47;;;28.00;46.00;;;;;;5053818;28;20047;-77
2023/05/22 11:49:52;;;;;;;8.80;3.55;;;28.00;45.60;;;;;;5054117;28;20036;-76
2023/05/22 11:52:18;;;;;;;15.18;3.50;;;28.00;45.00;;;;;;5054049;28;20066;-74
2023/05/22 11:54:45;;;;;;;4.05;3.03;;;28.00;45.20;;;;;;5053761;28;20495;-75
2023/05/22 11:57:12;;;;;;;9.20;3.35;;;28.00;44.20;;;;;;5053638;28;20020;-75
2023/05/22 11:59:38;;;;;;;8.27;3.33;;;28.00;44.60;;;;;;5053256;28;20037;-74
2023/05/22 12:02:06;;;;;;;8.45;3.25;;;28.00;45.00;;;;;;5053399;28;20104;-75
2023/05/22 12:04:32;;;;;;;9.80;3.65;;;27.90;43.80;;;;;;5035774;28;20060;-74
2023/05/22 12:06:58;;;;;;;9.95;3.70;;;27.90;44.40;;;;;;5053756;28;20365;-75
2023/05/22 12:09:26;;;;;;;7.75;3.15;;;27.90;44.60;;;;;;5053272;28;20033;-75
2023/05/22 12:11:55;;;;;;;6.38;3.15;;;27.90;44.90;;;;;;5053641;28;20380;-77
2023/05/22 12:14:29;;;;;;;8.13;3.08;;;27.90;45.10;;;;;;5053610;28;20079;-77
2023/05/22 12:16:57;;;;;;;7.75;3.38;;;28.00;45.80;;;;;;5053862;28;20148;-79
2023/05/22 12:19:24;;;;;;;6.47;3.35;;;28.10;46.20;;;;;;5052078;28;20043;-79
2023/05/22 12:21:50;;;;;;;10.45;3.55;;;28.20;45.00;;;;;;5032646;28;20028;-82
2023/05/22 12:24:22;;;;;;;7.90;3.00;;;28.20;44.20;;;;;;5050797;28;20044;-81
2023/05/22 12:26:55;;;;;;;4.20;2.85;;;28.30;44.70;;;;;;5052078;28;20444;-81
2023/05/22 12:29:24;;;;;;;5.57;3.50;;;28.30;44.70;;;;;;5052917;28;20404;-81
2023/05/22 12:31:50;;;;;;;7.65;3.20;;;28.30;44.00;;;;;;5052810;28;20120;-82
2023/05/22 12:34:17;;;;;;;6.18;4.20;;;28.30;43.90;;;;;;5052344;28;20116;-81
2023/05/22 12:36:45;;;;;;;6.18;3.85;;;28.30;45.20;;;;;;5052847;28;20055;-79
2023/05/22 12:39:21;;;;;;;8.20;3.50;;;28.40;46.00;;;;;;5034737;28;20044;-80
2023/05/22 12:41:47;;;;;;;4.60;3.25;;;28.50;44.80;;;;;;5051981;28;20021;-79
2023/05/22 12:44:15;;;;;;;7.22;3.78;;;28.50;45.20;;;;;;5052928;28;20032;-79